Fehn Calais — V2CI3 — position and weather

sailwx.info

Track history (hours):
 
Tides and Currents Weather Stations Pressure Air Temp Water Temp Dewpoint Dewpoint Depression Visibility Wind Speed Wind Dir Waves Ship Positions

Fehn Calais

Last reported at 2015-Mar-31 01:33 UTC. Time now 2015-Mar-31 02:03 UTC.
Position N 51°40' E 004°21'.

Length 82 m; draft 3.1 m.

Type: Cargo ship. MMSI: 305009000.

Date/timePositionNaut miles runAvg speedWind from/ knotsBaromVisibWave heightAir tempDewpointWater temp
2015-Mar-31 01:33N 51°40' E 004°21'7 7.1
2015-Mar-31 00:31N 51°40' E 004°10'2 1.6
2015-Mar-30 23:32N 51°40' E 004°07'9 6.3
2015-Mar-30 22:11N 51°33' E 003°59'4 6.3
2015-Mar-30 21:34N 51°29' E 004°00'2 2.4
2015-Mar-30 20:34N 51°26' E 004°01'6 6.2
2015-Mar-30 19:33N 51°23' E 004°09'6 5.8
2015-Mar-30 18:34N 51°20' E 004°17'7 7.4
2015-Mar-30 17:34N 51°14' E 004°24'8 7.1
2015-Mar-30 16:27N 51°07' E 004°18'4 3.2
2015-Mar-30 15:10N 51°04' E 004°22'1 0.0
2015-Mar-29 08:32N 51°04' E 004°22'4 3.8
2015-Mar-29 07:33N 51°07' E 004°18'8 7.9
2015-Mar-29 06:34N 51°14' E 004°24'7 7.5
2015-Mar-29 05:34N 51°20' E 004°16'7 7.2
2015-Mar-29 04:34N 51°22' E 004°05'5 5.3
2015-Mar-29 03:33N 51°24' E 003°57'7 7.3
2015-Mar-29 02:33N 51°21' E 003°46'7 7.2
2015-Mar-29 01:34N 51°25' E 003°36'7 6.9
2015-Mar-29 00:33N 51°30' E 003°28'7 6.4
2015-Mar-28 23:29N 51°36' E 003°23'7 6.2
2015-Mar-28 22:17N 51°42' E 003°17'111 6.1
2015-Mar-28 04:08N 53°23' E 004°32'14 8.7
2015-Mar-28 02:33N 53°36' E 004°39'8 8.2
2015-Mar-28 01:33N 53°44' E 004°43'16 7.9
2015-Mar-27 23:33N 53°59' E 004°48'9 8.0
2015-Mar-27 22:25N 54°08' E 004°51'239 7.2
2015-Mar-26 13:14N 58°04' E 005°58'6 7.7
2015-Mar-26 12:29N 58°10' E 005°59'7 7.7
2015-Mar-26 11:33N 58°17' E 005°59'8 8.1
2015-Mar-26 10:33N 58°25' E 005°60'1 0.9
2015-Mar-26 09:32N 58°26' E 005°59'0 0.0
2015-Mar-26 08:32N 58°26' E 005°59'0 0.0
2015-Mar-26 07:32N 58°26' E 005°59'0 0.0
2015-Mar-26 06:08N 58°26' E 005°59'0 0.0
2015-Mar-26 05:32N 58°26' E 005°59'0 0.0
2015-Mar-26 03:32N 58°26' E 005°59'0 0.0
2015-Mar-26 02:26N 58°26' E 005°59'0 0.0
2015-Mar-26 01:16N 58°26' E 005°59'0 0.0
2015-Mar-26 00:28N 58°26' E 005°59'0 0.0
2015-Mar-25 23:28N 58°26' E 005°59'0 0.0
2015-Mar-25 22:28N 58°26' E 005°59'0 0.0
2015-Mar-25 21:28N 58°26' E 005°59'0 0.0
2015-Mar-25 20:16N 58°26' E 005°59'0 0.0
2015-Mar-25 19:28N 58°26' E 005°59'0 0.0
2015-Mar-25 18:22N 58°26' E 005°59'0 0.0
2015-Mar-25 17:16N 58°26' E 005°59'0 0.0
2015-Mar-25 16:28N 58°26' E 005°59'0 0.0
2015-Mar-25 15:28N 58°26' E 005°59'0 0.0
2015-Mar-25 14:16N 58°26' E 005°59'0 0.0
2015-Mar-25 13:04N 58°26' E 005°59'0 0.0
2015-Mar-25 12:10N 58°26' E 005°59'0 0.0
2015-Mar-25 10:28N 58°26' E 005°59'0 0.0
2015-Mar-25 08:28N 58°26' E 005°59'0 0.0
2015-Mar-25 07:16N 58°26' E 005°59'0 0.0
2015-Mar-25 06:27N 58°26' E 005°59'0 0.0
2015-Mar-25 05:27N 58°26' E 005°59'0 0.0
2015-Mar-25 04:03N 58°26' E 005°59'0 0.0
2015-Mar-25 03:15N 58°26' E 005°59'0 0.0
2015-Mar-25 02:33N 58°26' E 005°59'0 0.0
2015-Mar-25 01:27N 58°26' E 005°59'0 0.0
2015-Mar-25 00:15N 58°26' E 005°59'0 0.0
2015-Mar-24 23:27N 58°26' E 005°59'0 0.0
2015-Mar-24 22:27N 58°26' E 005°59'0 0.0
2015-Mar-24 21:21N 58°26' E 005°59'0 0.0
2015-Mar-24 20:33N 58°26' E 005°59'0 0.0
2015-Mar-24 19:33N 58°26' E 005°59'0 0.0
2015-Mar-24 18:27N 58°26' E 005°59'1 0.6
2015-Mar-24 17:33N 58°25' E 005°60'8 8.0
2015-Mar-24 16:33N 58°19' E 006°10'7 7.4
2015-Mar-24 15:33N 58°14' E 006°19'8 8.3
2015-Mar-24 14:33N 58°07' E 006°29'139 6.5
2015-Mar-23 17:17N 59°01' E 010°34'4 4.9
2015-Mar-23 16:33N 59°04' E 010°38'5 5.2
2015-Mar-23 15:33N 59°08' E 010°45'5 5.0
2015-Mar-23 14:33N 59°13' E 010°44'8 7.7
2015-Mar-23 13:33N 59°20' E 010°39'8 7.5
2015-Mar-23 12:33N 59°27' E 010°33'4 4.3
2015-Mar-23 11:33N 59°29' E 010°41'1 0.6
2015-Mar-23 10:33N 59°28' E 010°41'0 0.0
2015-Mar-23 09:33N 59°28' E 010°41'0 0.0
2015-Mar-23 08:33N 59°28' E 010°41'0 0.0
2015-Mar-23 07:33N 59°28' E 010°41'0 0.0
2015-Mar-23 06:33N 59°28' E 010°41'0 0.0
2015-Mar-23 05:33N 59°28' E 010°41'0 0.0
2015-Mar-23 04:30N 59°28' E 010°41'0 0.0
2015-Mar-23 03:33N 59°28' E 010°41'0 0.0
2015-Mar-23 02:33N 59°28' E 010°41'0 0.0
2015-Mar-23 01:33N 59°28' E 010°41'0 0.0
2015-Mar-23 00:33N 59°28' E 010°41'0 0.0
2015-Mar-22 23:33N 59°28' E 010°41'0 0.0
2015-Mar-22 22:33N 59°28' E 010°41'0 0.0
2015-Mar-22 21:33N 59°28' E 010°41'0 0.0
2015-Mar-22 20:33N 59°28' E 010°41'0 0.0
2015-Mar-22 19:33N 59°28' E 010°41'0 0.0
2015-Mar-22 18:30N 59°28' E 010°41'0 0.0
2015-Mar-22 17:33N 59°28' E 010°41'0 0.0
2015-Mar-22 16:33N 59°28' E 010°41'0 0.0
2015-Mar-22 15:33N 59°28' E 010°41'0 0.0
2015-Mar-22 14:33N 59°28' E 010°41'0 0.0
2015-Mar-22 13:33N 59°28' E 010°41'0 0.0
2015-Mar-22 12:33N 59°28' E 010°41'0 0.0
2015-Mar-22 11:30N 59°28' E 010°41'0 0.0
2015-Mar-22 10:33N 59°28' E 010°41'0 0.0
2015-Mar-22 09:33N 59°28' E 010°41'0 0.0
2015-Mar-22 08:33N 59°28' E 010°41'0 0.0
2015-Mar-22 07:33N 59°28' E 010°41'0 0.0
2015-Mar-22 06:33N 59°28' E 010°41'0 0.0
2015-Mar-22 05:33N 59°28' E 010°41'0 0.0
2015-Mar-22 04:33N 59°28' E 010°41'0 0.0
2015-Mar-22 03:33N 59°28' E 010°41'0 0.0
2015-Mar-22 02:33N 59°28' E 010°41'0 0.0
2015-Mar-22 01:33N 59°28' E 010°41'0 0.0
2015-Mar-22 00:33N 59°28' E 010°41'0 0.0
2015-Mar-21 23:33N 59°28' E 010°41'0 0.0
2015-Mar-21 22:33N 59°28' E 010°41'0 0.0
2015-Mar-21 21:33N 59°28' E 010°41'0 0.0
2015-Mar-21 20:33N 59°28' E 010°41'0 0.0
2015-Mar-21 19:33N 59°28' E 010°41'0 0.0
2015-Mar-21 18:30N 59°28' E 010°41'0 0.0
2015-Mar-21 17:33N 59°28' E 010°41'0 0.0
2015-Mar-21 16:33N 59°28' E 010°41'0 0.0
2015-Mar-21 15:33N 59°28' E 010°41'0 0.0
2015-Mar-21 14:33N 59°28' E 010°41'0 0.0
2015-Mar-21 13:33N 59°28' E 010°41'0 0.0
2015-Mar-21 12:33N 59°28' E 010°41'0 0.0
2015-Mar-21 11:33N 59°28' E 010°41'0 0.0
2015-Mar-21 10:33N 59°28' E 010°41'0 0.0
2015-Mar-21 09:33N 59°28' E 010°41'0 0.0
2015-Mar-21 08:33N 59°28' E 010°41'0 0.0
2015-Mar-21 07:33N 59°28' E 010°41'0 0.0
2015-Mar-21 06:33N 59°28' E 010°41'0 0.0
2015-Mar-21 05:33N 59°28' E 010°41'0 0.0
2015-Mar-21 04:33N 59°28' E 010°41'0 0.0
2015-Mar-21 03:30N 59°28' E 010°41'0 0.0
2015-Mar-21 02:33N 59°28' E 010°41'  
Track history (hours):
 
Tides and Currents Weather Stations Pressure Air Temp Water Temp Dewpoint Dewpoint Depression Visibility Wind Speed Wind Dir Waves Ship Positions

Fehn Calais

Last reported at 2015-Mar-31 01:33 UTC. Time now 2015-Mar-31 02:03 UTC.
Position N 51°40' E 004°21'.

Length 82 m; draft 3.1 m.

Type: Cargo ship. MMSI: 305009000.

Date/timePositionNaut miles runAvg speedWind from/ knotsBaromVisibWave heightAir tempDewpointWater temp
2015-Mar-31 01:33N 51°40' E 004°21'7 7.1
2015-Mar-31 00:31N 51°40' E 004°10'2 1.6
2015-Mar-30 23:32N 51°40' E 004°07'9 6.3
2015-Mar-30 22:11N 51°33' E 003°59'4 6.3
2015-Mar-30 21:34N 51°29' E 004°00'2 2.4
2015-Mar-30 20:34N 51°26' E 004°01'6 6.2
2015-Mar-30 19:33N 51°23' E 004°09'6 5.8
2015-Mar-30 18:34N 51°20' E 004°17'7 7.4
2015-Mar-30 17:34N 51°14' E 004°24'8 7.1
2015-Mar-30 16:27N 51°07' E 004°18'4 3.2
2015-Mar-30 15:10N 51°04' E 004°22'1 0.0
2015-Mar-29 08:32N 51°04' E 004°22'4 3.8
2015-Mar-29 07:33N 51°07' E 004°18'8 7.9
2015-Mar-29 06:34N 51°14' E 004°24'7 7.5
2015-Mar-29 05:34N 51°20' E 004°16'7 7.2
2015-Mar-29 04:34N 51°22' E 004°05'5 5.3
2015-Mar-29 03:33N 51°24' E 003°57'7 7.3
2015-Mar-29 02:33N 51°21' E 003°46'7 7.2
2015-Mar-29 01:34N 51°25' E 003°36'7 6.9
2015-Mar-29 00:33N 51°30' E 003°28'7 6.4
2015-Mar-28 23:29N 51°36' E 003°23'7 6.2
2015-Mar-28 22:17N 51°42' E 003°17'111 6.1
2015-Mar-28 04:08N 53°23' E 004°32'14 8.7
2015-Mar-28 02:33N 53°36' E 004°39'8 8.2
2015-Mar-28 01:33N 53°44' E 004°43'16 7.9
2015-Mar-27 23:33N 53°59' E 004°48'9 8.0
2015-Mar-27 22:25N 54°08' E 004°51'239 7.2
2015-Mar-26 13:14N 58°04' E 005°58'6 7.7
2015-Mar-26 12:29N 58°10' E 005°59'7 7.7
2015-Mar-26 11:33N 58°17' E 005°59'8 8.1
2015-Mar-26 10:33N 58°25' E 005°60'1 0.9
2015-Mar-26 09:32N 58°26' E 005°59'0 0.0
2015-Mar-26 08:32N 58°26' E 005°59'0 0.0
2015-Mar-26 07:32N 58°26' E 005°59'0 0.0
2015-Mar-26 06:08N 58°26' E 005°59'0 0.0
2015-Mar-26 05:32N 58°26' E 005°59'0 0.0
2015-Mar-26 03:32N 58°26' E 005°59'0 0.0
2015-Mar-26 02:26N 58°26' E 005°59'0 0.0
2015-Mar-26 01:16N 58°26' E 005°59'0 0.0
2015-Mar-26 00:28N 58°26' E 005°59'0 0.0
2015-Mar-25 23:28N 58°26' E 005°59'0 0.0
2015-Mar-25 22:28N 58°26' E 005°59'0 0.0
2015-Mar-25 21:28N 58°26' E 005°59'0 0.0
2015-Mar-25 20:16N 58°26' E 005°59'0 0.0
2015-Mar-25 19:28N 58°26' E 005°59'0 0.0
2015-Mar-25 18:22N 58°26' E 005°59'0 0.0
2015-Mar-25 17:16N 58°26' E 005°59'0 0.0
2015-Mar-25 16:28N 58°26' E 005°59'0 0.0
2015-Mar-25 15:28N 58°26' E 005°59'0 0.0
2015-Mar-25 14:16N 58°26' E 005°59'0 0.0
2015-Mar-25 13:04N 58°26' E 005°59'0 0.0
2015-Mar-25 12:10N 58°26' E 005°59'0 0.0
2015-Mar-25 10:28N 58°26' E 005°59'0 0.0
2015-Mar-25 08:28N 58°26' E 005°59'0 0.0
2015-Mar-25 07:16N 58°26' E 005°59'0 0.0
2015-Mar-25 06:27N 58°26' E 005°59'0 0.0
2015-Mar-25 05:27N 58°26' E 005°59'0 0.0
2015-Mar-25 04:03N 58°26' E 005°59'0 0.0
2015-Mar-25 03:15N 58°26' E 005°59'0 0.0
2015-Mar-25 02:33N 58°26' E 005°59'0 0.0
2015-Mar-25 01:27N 58°26' E 005°59'0 0.0
2015-Mar-25 00:15N 58°26' E 005°59'0 0.0
2015-Mar-24 23:27N 58°26' E 005°59'0 0.0
2015-Mar-24 22:27N 58°26' E 005°59'0 0.0
2015-Mar-24 21:21N 58°26' E 005°59'0 0.0
2015-Mar-24 20:33N 58°26' E 005°59'0 0.0
2015-Mar-24 19:33N 58°26' E 005°59'0 0.0
2015-Mar-24 18:27N 58°26' E 005°59'1 0.6
2015-Mar-24 17:33N 58°25' E 005°60'8 8.0
2015-Mar-24 16:33N 58°19' E 006°10'7 7.4
2015-Mar-24 15:33N 58°14' E 006°19'8 8.3
2015-Mar-24 14:33N 58°07' E 006°29'139 6.5
2015-Mar-23 17:17N 59°01' E 010°34'4 4.9
2015-Mar-23 16:33N 59°04' E 010°38'5 5.2
2015-Mar-23 15:33N 59°08' E 010°45'5 5.0
2015-Mar-23 14:33N 59°13' E 010°44'8 7.7
2015-Mar-23 13:33N 59°20' E 010°39'8 7.5
2015-Mar-23 12:33N 59°27' E 010°33'4 4.3
2015-Mar-23 11:33N 59°29' E 010°41'1 0.6
2015-Mar-23 10:33N 59°28' E 010°41'0 0.0
2015-Mar-23 09:33N 59°28' E 010°41'0 0.0
2015-Mar-23 08:33N 59°28' E 010°41'0 0.0
2015-Mar-23 07:33N 59°28' E 010°41'0 0.0
2015-Mar-23 06:33N 59°28' E 010°41'0 0.0
2015-Mar-23 05:33N 59°28' E 010°41'0 0.0
2015-Mar-23 04:30N 59°28' E 010°41'0 0.0
2015-Mar-23 03:33N 59°28' E 010°41'0 0.0
2015-Mar-23 02:33N 59°28' E 010°41'0 0.0
2015-Mar-23 01:33N 59°28' E 010°41'0 0.0
2015-Mar-23 00:33N 59°28' E 010°41'0 0.0
2015-Mar-22 23:33N 59°28' E 010°41'0 0.0
2015-Mar-22 22:33N 59°28' E 010°41'0 0.0
2015-Mar-22 21:33N 59°28' E 010°41'0 0.0
2015-Mar-22 20:33N 59°28' E 010°41'0 0.0
2015-Mar-22 19:33N 59°28' E 010°41'0 0.0
2015-Mar-22 18:30N 59°28' E 010°41'0 0.0
2015-Mar-22 17:33N 59°28' E 010°41'0 0.0
2015-Mar-22 16:33N 59°28' E 010°41'0 0.0
2015-Mar-22 15:33N 59°28' E 010°41'0 0.0
2015-Mar-22 14:33N 59°28' E 010°41'0 0.0
2015-Mar-22 13:33N 59°28' E 010°41'0 0.0
2015-Mar-22 12:33N 59°28' E 010°41'0 0.0
2015-Mar-22 11:30N 59°28' E 010°41'0 0.0
2015-Mar-22 10:33N 59°28' E 010°41'0 0.0
2015-Mar-22 09:33N 59°28' E 010°41'0 0.0
2015-Mar-22 08:33N 59°28' E 010°41'0 0.0
2015-Mar-22 07:33N 59°28' E 010°41'0 0.0
2015-Mar-22 06:33N 59°28' E 010°41'0 0.0
2015-Mar-22 05:33N 59°28' E 010°41'0 0.0
2015-Mar-22 04:33N 59°28' E 010°41'0 0.0
2015-Mar-22 03:33N 59°28' E 010°41'0 0.0
2015-Mar-22 02:33N 59°28' E 010°41'0 0.0
2015-Mar-22 01:33N 59°28' E 010°41'0 0.0
2015-Mar-22 00:33N 59°28' E 010°41'0 0.0
2015-Mar-21 23:33N 59°28' E 010°41'0 0.0
2015-Mar-21 22:33N 59°28' E 010°41'0 0.0
2015-Mar-21 21:33N 59°28' E 010°41'0 0.0
2015-Mar-21 20:33N 59°28' E 010°41'0 0.0
2015-Mar-21 19:33N 59°28' E 010°41'0 0.0
2015-Mar-21 18:30N 59°28' E 010°41'0 0.0
2015-Mar-21 17:33N 59°28' E 010°41'0 0.0
2015-Mar-21 16:33N 59°28' E 010°41'0 0.0
2015-Mar-21 15:33N 59°28' E 010°41'0 0.0
2015-Mar-21 14:33N 59°28' E 010°41'0 0.0
2015-Mar-21 13:33N 59°28' E 010°41'0 0.0
2015-Mar-21 12:33N 59°28' E 010°41'0 0.0
2015-Mar-21 11:33N 59°28' E 010°41'0 0.0
2015-Mar-21 10:33N 59°28' E 010°41'0 0.0
2015-Mar-21 09:33N 59°28' E 010°41'0 0.0
2015-Mar-21 08:33N 59°28' E 010°41'0 0.0
2015-Mar-21 07:33N 59°28' E 010°41'0 0.0
2015-Mar-21 06:33N 59°28' E 010°41'0 0.0
2015-Mar-21 05:33N 59°28' E 010°41'0 0.0
2015-Mar-21 04:33N 59°28' E 010°41'0 0.0
2015-Mar-21 03:30N 59°28' E 010°41'0 0.0
2015-Mar-21 02:33N 59°28' E 010°41'  

Dump ship's entire track history